• Join FlightAware (Why Join?)
  • Login
  • US Flag 
03:42AM EDT


 

Airport Tracker/Info


-or-


 

Live Flight TrackerFlight Track Log ✈ N990TC ✈ 16-Jul-2013 ✈ KMTN - KHOU

Flight Track Log - Related Links

Times and Time Zones

All times are in EDT time to prevent confusion due to time zone crossing. See the N990TC flight status page for this flight to view local times or setup timezone preferences in your user account.

Time Position Orientation Groundspeed Altitude Reporting Facility
EDT Latitude Longitude Course Direction KTS MPH feet Rate Location/Type
05:19PM 39.3667 -76.4667 252° West 190 219 1,600  Level Potomac TRACON
05:20PM 39.3500 -76.5333 252° West 210 242 3,000 720 Climbing Potomac TRACON
05:21PM 39.3333 -76.6000 252° West 229 264 3,100 1,080 Climbing Potomac TRACON
05:22PM 39.3000 -76.6833 243° Southwest 236 272 5,200 2,160 Climbing Potomac TRACON
05:23PM 39.3000 -76.7667 270° West 242 278 7,500 1,380 Climbing Potomac TRACON
05:24PM 39.2833 -76.8667 258° West 288 331 8,000 600 Climbing Potomac TRACON
05:25PM 39.2833 -76.9667 270° West 293 337 8,700 1,560 Climbing Potomac TRACON
05:26PM 39.2667 -77.0667 258° West 296 341 11,100 3,240 Climbing Potomac TRACON
05:27PM 39.2333 -77.1500 243° Southwest 266 306 15,300 2,700 Climbing Potomac TRACON
05:28PM 39.1667 -77.2167 218° Southwest 291 335 17,100 1,620 Climbing Potomac TRACON
05:29PM 39.1000 -77.2833 218° Southwest 326 375 18,600 1,800 Climbing Potomac TRACON
05:30PM 39.0333 -77.3500 218° Southwest 333 383 20,600 1,920 Climbing Potomac TRACON
05:31PM 38.9333 -77.3833 195° South 331 381 22,700 1,200 Climbing Potomac TRACON
05:32PM 38.8500 -77.4167 197° South 367 422 23,000 120 Climbing Potomac TRACON
05:33PM 38.7333 -77.4500 193° South 403 464 23,000  Level Potomac TRACON
05:35PM 38.5856 -77.5039 196° South 397 457 23,000  Level Washington Center
05:36PM 38.4806 -77.5383 194° South 392 451 23,000 240 Level Washington Center
05:37PM 38.3819 -77.5889 202° Southwest 392 451 23,500 1,740 Climbing Washington Center
05:38PM 38.3197 -77.6850 230° Southwest 363 418 26,600 1,680 Climbing Washington Center
05:39PM 38.2578 -77.7758 229° Southwest 351 404 27,000 300 Climbing Washington Center
05:40PM 38.1767 -77.8633 220° Southwest 358 412 27,300 480 Climbing Washington Center
05:41PM 38.1119 -77.9750 234° Southwest 378 435 28,000 300 Climbing Washington Center
05:42PM 38.0492 -78.0889 235° Southwest 390 449 28,000  Level Washington Center
05:43PM 37.9886 -78.1975 235° Southwest 395 455 28,000 300 Level Washington Center
05:44PM 37.9175 -78.3003 229° Southwest 395 455 28,700 1,320 Climbing Washington Center
05:45PM 37.8572 -78.3850 228° Southwest 385 443 30,600 1,620 Climbing Washington Center
05:46PM 37.7944 -78.4747 228° Southwest 362 417 32,000 780 Climbing Washington Center
05:47PM 37.7297 -78.5667 228° Southwest 357 411 32,200 480 Climbing Washington Center
05:48PM 37.6647 -78.6586 228° Southwest 357 411 33,000 720 Climbing Washington Center
05:49PM 37.5889 -78.7656 228° Southwest 363 418 33,700 1,320 Climbing Washington Center
05:50PM 37.5219 -78.8597 228° Southwest 363 418 35,600 1,620 Climbing Washington Center
05:51PM 37.4589 -78.9486 228° Southwest 358 412 37,000 1,140 Climbing Washington Center
05:52PM 37.3981 -79.0322 228° Southwest 353 406 38,000 480 Climbing Washington Center
05:53PM 37.3372 -79.1131 227° Southwest 353 406 38,000  Level Washington Center
05:54PM 37.2675 -79.2142 229° Southwest 364 419 38,000  Level Washington Center
05:55PM 37.1894 -79.3097 224° Southwest 388 447 38,000 480 Level Washington Center
05:56PM 37.1156 -79.4075 227° Southwest 388 447 39,000 960 Climbing Washington Center
05:57PM 37.0439 -79.4978 225° Southwest 381 438 40,000 480 Climbing Washington Center
05:58PM 36.9611 -79.6028 225° Southwest 381 438 40,000  Level Washington Center
05:59PM 36.8803 -79.7050 225° Southwest 388 447 40,000  Level Washington Center
06:00PM 36.7997 -79.8019 224° Southwest 401 461 40,000  Level Washington Center
06:01PM 36.7067 -79.9192 225° Southwest 411 473 40,000  Level Atlanta Center
06:02PM 36.6264 -80.0164 224° Southwest 417 480 40,000  Level Atlanta Center
06:03PM 36.5461 -80.1161 225° Southwest 412 474 40,000  Level Atlanta Center
06:04PM 36.4600 -80.2236 225° Southwest 407 468 40,000  Level Atlanta Center
06:05PM 36.3794 -80.3175 223° Southwest 407 468 40,000  Level Atlanta Center
06:06PM 36.3192 -80.3925 225° Southwest 407 468 40,000  Level Atlanta Center
06:07PM 36.2244 -80.5075 224° Southwest 402 463 40,000  Level Atlanta Center
06:08PM 36.1414 -80.5986 222° Southwest 402 463 40,000  Level Atlanta Center
06:09PM 36.0683 -80.6711 219° Southwest 396 456 40,000  Level Atlanta Center
06:10PM 35.9831 -80.7567 219° Southwest 396 456 40,000  Level Atlanta Center
06:11PM 35.8997 -80.8419 220° Southwest 396 456 40,000  Level Atlanta Center
06:12PM 35.8103 -80.9328 219° Southwest 391 450 40,000  Level Atlanta Center
06:13PM 35.7269 -81.0150 219° Southwest 391 450 40,000  Level Atlanta Center
06:14PM 35.6394 -81.1028 219° Southwest 391 450 40,000  Level Atlanta Center
06:15PM 35.5536 -81.1850 218° Southwest 405 466 40,000  Level Atlanta Center
06:16PM 35.4744 -81.2744 223° Southwest 405 466 40,000  Level Atlanta Center
06:17PM 35.4097 -81.3783 233° Southwest 419 482 40,000  Level Atlanta Center
06:18PM 35.3475 -81.4822 234° Southwest 397 457 40,000  Level Atlanta Center
06:19PM 35.2828 -81.5886 233° Southwest 390 449 40,000  Level Atlanta Center
06:20PM 35.2119 -81.7078 234° Southwest 390 449 40,000  Level Atlanta Center
06:21PM 35.1472 -81.8111 233° Southwest 390 449 40,000  Level Atlanta Center
06:22PM 35.0825 -81.9194 234° Southwest 391 450 40,000  Level Atlanta Center
06:23PM 35.0172 -82.0225 232° Southwest 391 450 40,000  Level Atlanta Center
06:24PM 34.9503 -82.1306 233° Southwest 391 450 40,000  Level Atlanta Center
06:25PM 34.8869 -82.2283 232° Southwest 381 438 40,000  Level Atlanta Center
06:26PM 34.8217 -82.3333 233° Southwest 381 438 40,000  Level Atlanta Center
06:27PM 34.7564 -82.4408 234° Southwest 386 444 40,000  Level Atlanta Center
06:28PM 34.6889 -82.5483 233° Southwest 396 456 40,000  Level Atlanta Center
06:29PM 34.6294 -82.6428 233° Southwest 390 449 40,000  Level Atlanta Center
06:30PM 34.5575 -82.7447 229° Southwest 397 457 40,000  Level Atlanta Center
06:31PM 34.4961 -82.8517 235° Southwest 402 463 40,000  Level Atlanta Center
06:32PM 34.4281 -82.9583 232° Southwest 397 457 40,000  Level Atlanta Center
06:33PM 34.3561 -83.0750 233° Southwest 397 457 40,000  Level Atlanta Center
06:34PM 34.2881 -83.1764 231° Southwest 397 457 40,000  Level Atlanta Center
06:35PM 34.2219 -83.2825 233° Southwest 397 457 40,000  Level Atlanta Center
06:36PM 34.1556 -83.3861 232° Southwest 397 457 40,000  Level Atlanta Center
06:37PM 34.0853 -83.4894 231° Southwest 402 463 40,000  Level Atlanta Center
06:38PM 34.0189 -83.5953 233° Southwest 402 463 40,000  Level Atlanta Center
06:39PM 33.9525 -83.6983 232° Southwest 402 463 40,000  Level Atlanta Center
06:40PM 33.8839 -83.8011 231° Southwest 402 463 40,000  Level Atlanta Center
06:41PM 33.8172 -83.9039 232° Southwest 402 463 40,000  Level Atlanta Center
06:42PM 33.7544 -83.9964 231° Southwest 395 455 40,000  Level Atlanta Center
06:43PM 33.6878 -84.1011 233° Southwest 395 455 40,000  Level Atlanta Center
06:44PM 33.6125 -84.2158 232° Southwest 400 460 40,000  Level Atlanta Center
06:45PM 33.5497 -84.3081 231° Southwest 400 460 40,000  Level Atlanta Center
06:46PM 33.4744 -84.4222 232° Southwest 400 460 40,000  Level Atlanta Center
06:47PM 33.4072 -84.5267 232° Southwest 400 460 40,000  Level Atlanta Center
06:48PM 33.3400 -84.6281 232° Southwest 400 460 40,000  Level Atlanta Center
06:49PM 33.2725 -84.7294 231° Southwest 395 455 40,000  Level Atlanta Center
06:50PM 33.2072 -84.8308 232° Southwest 395 455 40,000  Level Atlanta Center
06:51PM 33.1378 -84.9294 230° Southwest 395 455 40,000  Level Atlanta Center
06:52PM 33.0722 -85.0303 232° Southwest 395 455 40,000  Level Atlanta Center
06:53PM 33.0089 -85.1214 230° Southwest 395 455 40,000  Level Atlanta Center
06:54PM 32.9453 -85.2172 232° Southwest 384 442 40,000  Level Atlanta Center
06:55PM 32.8775 -85.3175 231° Southwest 384 442 40,000  Level Atlanta Center
06:56PM 32.8097 -85.4178 231° Southwest 389 448 40,000  Level Atlanta Center
06:57PM 32.7417 -85.5156 230° Southwest 389 448 40,000  Level Atlanta Center
06:58PM 32.6717 -85.6156 230° Southwest 389 448 40,000  Level Atlanta Center
06:59PM 32.6056 -85.7131 231° Southwest 394 453 40,000  Level Atlanta Center
07:00PM 32.5375 -85.8128 231° Southwest 389 448 40,000  Level Atlanta Center
07:01PM 32.4692 -85.9150 232° Southwest 389 448 40,000  Level Atlanta Center
07:02PM 32.3986 -86.0142 230° Southwest 396 456 40,000  Level Atlanta Center
07:03PM 32.3283 -86.1133 230° Southwest 396 456 40,000  Level Atlanta Center
07:04PM 32.2597 -86.2100 230° Southwest 396 456 40,000  Level Atlanta Center
07:05PM 32.2017 -86.3117 236° Southwest 390 449 40,000  Level Atlanta Center
07:06PM 32.1331 -86.4106 231° Southwest 404 465 40,000  Level Atlanta Center
07:07PM 32.0622 -86.5067 229° Southwest 393 452 40,000  Level Atlanta Center
07:08PM 31.9956 -86.6053 231° Southwest 393 452 40,000  Level Atlanta Center
07:09PM 31.9139 -86.7081 227° Southwest 393 452 40,000  Level Atlanta Center
07:10PM 31.8472 -86.8064 231° Southwest 393 452 40,000  Level Atlanta Center
07:11PM 31.7803 -86.8997 230° Southwest 393 452 40,000  Level Atlanta Center
07:12PM 31.7133 -86.9928 230° Southwest 388 447 40,000  Level Atlanta Center
07:13PM 31.6569 -87.0786 232° Southwest 382 440 40,000  Level Atlanta Center
07:14PM 31.5878 -87.1739 230° Southwest 382 440 40,000  Level Atlanta Center
07:15PM 31.5208 -87.2689 230° Southwest 388 447 40,000  Level Atlanta Center
07:15PM 31.4808 -87.3175 226° Southwest 377 434 40,000  Level Houston Center
07:16PM 31.4122 -87.4131 230° Southwest 380 437 40,000  Level Houston Center
07:17PM 31.3447 -87.5081 230° Southwest 380 437 40,000  Level Houston Center
07:18PM 31.2769 -87.6025 230° Southwest 380 437 40,000  Level Houston Center
07:19PM 31.2092 -87.6958 230° Southwest 378 435 40,000  Level Houston Center
07:20PM 31.1264 -87.8078 229° Southwest 378 435 40,000  Level Houston Center
07:21PM 31.0606 -87.9008 230° Southwest 374 430 40,000  Level Houston Center
07:23PM 30.9931 -87.9922 229° Southwest 373 429 40,000  Level Houston Center
07:24PM 30.9242 -88.0839 229° Southwest 377 434 40,000  Level Houston Center
07:25PM 30.8675 -88.1833 236° Southwest 370 426 40,000  Level Houston Center
07:26PM 30.8322 -88.2925 249° West 360 414 40,000  Level Houston Center
07:27PM 30.7933 -88.3992 247° West 357 411 40,000  Level Houston Center
07:28PM 30.7461 -88.5272 247° West 358 412 40,000  Level Houston Center
07:29PM 30.7089 -88.6328 248° West 354 407 40,000  Level Houston Center
07:30PM 30.6744 -88.7261 247° West 354 407 40,000  Level Houston Center
07:31PM 30.6275 -88.8533 247° West 354 407 40,000  Level Houston Center
07:32PM 30.5936 -88.9492 248° West 353 406 40,000  Level Houston Center
07:33PM 30.5558 -89.0556 248° West 356 410 40,000  Level Houston Center
07:34PM 30.5161 -89.1603 246° West 354 407 40,000  Level Houston Center
07:35PM 30.4706 -89.2864 247° West 352 405 40,000  Level Houston Center
07:36PM 30.4319 -89.3931 247° West 358 412 40,000  Level Houston Center
07:37PM 30.3928 -89.4972 246° West 354 407 40,000  Level Houston Center
07:38PM 30.3536 -89.6025 247° West 352 405 40,000  Level Houston Center
07:39PM 30.3061 -89.7181 245° Southwest 365 420 40,000  Level Houston Center
07:40PM 30.2681 -89.8233 247° West 358 412 40,000  Level Houston Center
07:41PM 30.2297 -89.9292 247° West 357 411 40,000  Level Houston Center
07:42PM 30.1908 -90.0367 247° West 361 415 40,000  Level Houston Center
07:43PM 30.1494 -90.1417 246° West 359 413 40,000  Level Houston Center
07:44PM 30.1100 -90.2472 247° West 358 412 40,000  Level Houston Center
07:45PM 30.0625 -90.3736 247° West 358 412 40,000  Level Houston Center
07:46PM 30.0217 -90.4794 246° West 361 415 40,000  Level Houston Center
07:47PM 29.9814 -90.5836 246° West 358 412 40,000  Level Houston Center
07:48PM 29.9411 -90.6900 246° West 360 414 40,000  Level Houston Center
07:49PM 29.9000 -90.7961 246° West 362 417 40,000  Level Houston Center
07:50PM 29.8583 -90.9039 246° West 366 421 40,000  Level Houston Center
07:51PM 29.8364 -91.0183 258° West 368 423 40,000  Level Houston Center
07:52PM 29.8164 -91.1578 261° West 368 423 40,000  Level Houston Center
07:53PM 29.7978 -91.2747 260° West 371 427 40,000  Level Houston Center
07:54PM 29.7803 -91.3939 260° West 375 432 40,000  Level Houston Center
07:55PM 29.7617 -91.5117 260° West 375 432 40,000  Level Houston Center
07:56PM 29.7439 -91.6278 260° West 372 428 40,000  Level Houston Center
07:58PM 29.7258 -91.7444 260° West 371 427 40,000  Level Houston Center
07:59PM 29.7072 -91.8622 260° West 372 428 40,000  Level Houston Center
08:00PM 29.6847 -92.0042 260° West 375 432 40,000  Level Houston Center
08:01PM 29.6661 -92.1208 260° West 373 429 40,000  Level Houston Center
08:02PM 29.6478 -92.2378 260° West 372 428 40,000  Level Houston Center
08:03PM 29.6283 -92.3544 259° West 371 427 40,000  Level Houston Center
08:04PM 29.6106 -92.4708 260° West 371 427 40,000  Level Houston Center
08:05PM 29.5919 -92.5867 260° West 369 425 40,000  Level Houston Center
08:06PM 29.5722 -92.7011 259° West 365 420 40,000 -300 Level Houston Center
08:07PM 29.5500 -92.8403 260° West 368 423 39,400 -1,260 Descending Houston Center
08:08PM 29.5289 -92.9628 259° West 385 443 37,400 -2,040 Descending Houston Center
08:09PM 29.5092 -93.0878 260° West 394 453 35,300 -2,160 Descending Houston Center
08:10PM 29.4872 -93.2142 259° West 401 461 33,000 -2,280 Descending Houston Center
08:11PM 29.4664 -93.3431 260° West 408 470 30,700 -2,280 Descending Houston Center
08:12PM 29.4275 -93.4669 250° West 413 475 28,400 -2,280 Descending Houston Center
08:13PM 29.3775 -93.5881 245° Southwest 419 482 26,100 -2,760 Descending Houston Center
08:14PM 29.3508 -93.7278 258° West 381 438 22,700 -3,060 Descending Houston Center
08:15PM 29.3394 -93.8508 264° West 387 445 19,800 -2,640 Descending Houston Center
08:16PM 29.3269 -93.9503 262° West 372 428 17,300 -3,000 Descending Houston Center
08:17PM 29.3167 -94.0617 264° West 341 392 14,200 -3,000 Descending Houston Center
08:18PM 29.3114 -94.1558 266° West 337 388 12,000 -1,140 Descending Houston Center
08:19PM 29.3411 -94.2622 288° West 334 384 12,000  Level Houston Center
08:20PM 29.3808 -94.3650 294° West 337 388 12,000 -60 Level Houston Center
08:21PM 29.4081 -94.4719 286° West 325 374 11,900 -840 Descending Houston Center
08:22PM 29.3864 -94.5708 256° West 314 361 10,200 -1,860 Descending Houston Center
08:23PM 29.3672 -94.6764 258° West 291 335 8,000 -1,140 Descending Houston Center
08:24PM 29.4081 -94.7719 296° West 296 341 7,700 -780 Descending Houston Center
08:25PM 29.4367 -94.8283 300° West 267 307 6,500 -1,020 Descending Houston Center
08:26PM 29.4681 -94.8942 299° West 252 290 6,000 -300 Descending Houston Center
08:27PM 29.4994 -94.9597 299° West 232 267 6,000  Level Houston Center
08:28PM 29.5389 -95.0414 299° West 297 342 6,000  Level Houston Center
08:29PM 29.5800 -95.1228 300° West 287 330 6,000  Level Houston Center
08:30PM 29.5708 -95.2033 263° West 259 298 6,000 -600 Level Houston Center
08:31PM 29.5331 -95.2728 238° Southwest 274 315 4,800 -1,860 Descending Houston Center
08:32PM 29.5578 -95.3369 294° West 259 298 2,200 -1,920 Descending Houston Center
08:33PM 29.6047 -95.3217 16° North 161 185 900 -960 Descending Houston Center
08:34PM 29.6297 -95.2947 43° Northeast 104 120 300 -600 Descending Houston Center